My Meet Scores
Whitney Walker, Aspire Gymnastics Academy - MyMeetScores.com
Top100 | Top Teams | Upcoming Meets | Completed Meets | Latest | Add Scores | Help| Support | Bookmark and Share

Whitney Walker, Aspire Gymnastics Academy
Personal Bests
LevelVault BarsBeamFloorAA
39.7759.700 9.8509.80038.875
49.8009.950 9.6009.65038.575
79.6509.625 9.7759.82538.400
Scores on America's Top 100as of 04.08.2020
Year Level Vault Bars Beam Floor AA
2017 338.875
2018 39.850
2018 49.800
2019 49.7509.95038.575
2020 79.7759.82538.400


Click here to view our exclusive Top 100 Collection
Meet Scores
Date Meet Team Session Level Division Vault Bars Beam Floor AA
2020-02-21 Great Western Invitational - Women's Aspire Gymnastics Academy 03 7 Buckaroo 9.250 3 9.625 9 9.775 1 9.475 4T 38.125 2
2020-01-24 Uga Invitational Aspire Gymnastics Academy 1A 7 Jr A 9.475 1 9.225 8T 9.625 1 9.825 1 38.150 1
2020-01-17 2020 Bravo Classic Aspire Gymnastics Academy 4B 7 Child 9.650 1 9.500 5 9.550 1 9.700 1 38.400 1
2020-01-03 2020 California Grand Invitational Aspire Gymnastics Academy L06 7 Child 9.150 2 8.775 8 9.300 6 9.425 3 36.650 8
2019-12-20 Aspire Classic - 2019 Aspire Gymnastics Academy 2B 7 Younger 9.500 1 8.500 20 9.525 2T 9.750 2 37.275 7
2019-03-08 Lucky Invite Aspire Gymnastics Academy A09 4 Jr A 9.600 3 9.950 1 9.375 5 9.650 1 38.575 1
2019-02-23 Kinetic Classic 2019 Aspire Gymnastics Academy 1 4 Middle 9.175 1 9.800 1 9.550 1 9.325 1 37.850 1
2019-02-15 Big ClassicBIG CLASSIC Aspire Gymnastics Academy 5A 4 Child B 9.500 2 9.300 1 8.800 12 9.375 1T 36.975 2
2019-01-25 UGA Invitational Aspire Gymnastics Academy B06 4 Ch B 9.250 3 9.600 1 9.400 2 9.525 1 37.775 2
2019-01-18 2019 Bravo Classic Aspire Gymnastics Academy 3B 4 Jr 9.750 1 9.450 3 9.200 5 9.425 1 37.825 1
2018-12-14 2018 Aspire Classic Aspire Gymnastics Academy 5A 4 Middle 9.450 1 8.950 11 9.600 1 9.400 4 37.400 2
2018-12-07 St. Nick Invite 2018 Aspire Gymnastics Academy 5A 4 SrA 9.800 1 9.650 2 9.525 1 9.100 8 38.075 1
2018-11-17 Paul Hamm Thanksgiving Class WOMENS Aspire Gymnastics Academy 6 4 Younger 9.675 1 9.650 2 9.425 1 9.600 1 38.350 1
2018-05-03 Illinois USA Gymnastics Level 3 State Championships Aspire Gymnastics Academy 4 3 Youth E 9.775 1 9.675 1 9.550 2 9.500 5 38.500 1
2018-02-16 Big Classic Aspire Gymnastics Academy 1B 3 Child B 9.500 2 9.450 7T 9.450 3 9.475 2 37.875 3
2018-01-26 2018 UGA Classic Aspire Gymnastics Academy A8 3 Jr C 9.300 6T 9.400 4T 9.850 2 9.700 1 38.250 2
2018-01-19 2018 Bravo Classic Aspire Gymnastics Academy 7B 3 Jr 9.600 1 9.575 2 9.550 1 9.550 1 38.275 1
2017-12-15 2017 Aspire Classic Aspire Gymnastics Academy 11A 3 Middle 9.725 1T 9.700 2 9.650 1 9.800 2 38.875 1
2017-12-08 St. Nick Invite Aspire Gymnastics Academy 6A 3 SrA 9.625 1 9.600 1 9.400 1T 9.250 4 37.875 2
2017-11-16 Paul Hamm Thanksgiving Classic - Women Aspire Gymnastics Academy 5 3 Middle 9.550 4 9.450 5T 9.600 1 9.550 1 38.150 1
2017-03-30 2017 Illinois Level 3 & 5 State Aspire Gymnastics Academy All 3 Ch E 9.500 9T 8.300 30 9.075 13T 9.025 18 35.900 21
2017-02-24 Kinetic Classic Aspire Gymnastics Academy 4,5,6,7 3 All Ages 9.275 27T 8.375 85 8.850 52T 8.850 62T 35.350 68T
2017-02-18 2017 Great Western Invitational Women's Aspire Gymnastics Academy 1 3 Filly 8.750 17T 9.075 6 9.200 2 9.300 3 36.325 7
2017-01-27 2017 UGA Invitational Aspire Gymnastics Academy B6 3 Jr A 8.450 11T 8.400 10 9.250 1 9.300 1 35.400 5
2017-01-20 2017 Bravo Classic Aspire Gymnastics Academy 10B 3 6-7yrs 8.625 25 9.200 9T 9.000 7T 8.225 19T 35.050 13T
2016-12-16 2016 Aspire Classic Aspire Gymnastics Academy 12 3 Younger 9.100 7 9.050 7 8.200 11 8.900 7T 35.250 6
2016-12-09 St. Nick Invite Aspire Gymnastics Academy 6 3 All 9.300 7T 8.925 9T 8.950 5T 9.075 9T 36.250 3
2016-11-19 Paul Hamm Thanksgiving Classic - 2016 Girls Aspire Gymnastics Academy 6 3 6-7 yrs 8.250 11 8.800 7 9.075 2 9.000 5 35.125 4
Get your scores on
a t-shirt, pin, or hoodie

www.lazysuits.com